createdAt,value
2018-06-16T00:00:48.353Z,15.60
2018-06-16T00:01:48.358Z,14.10
2018-06-16T00:02:48.358Z,12.80
2018-06-16T00:03:48.362Z,13.90
2018-06-16T00:04:48.366Z,17.00
2018-06-16T00:05:48.367Z,15.50
2018-06-16T00:06:48.370Z,18.80
2018-06-16T00:07:48.373Z,13.30
2018-06-16T00:08:48.377Z,15.10
2018-06-16T00:09:48.380Z,15.10
2018-06-16T00:10:48.383Z,14.90
2018-06-16T00:11:48.386Z,16.30
2018-06-16T00:12:48.389Z,12.30
2018-06-16T00:13:48.392Z,13.40
2018-06-16T00:14:48.396Z,12.30
2018-06-16T00:15:48.398Z,12.90
2018-06-16T00:16:48.401Z,13.40
2018-06-16T00:17:48.404Z,11.40
2018-06-16T00:18:48.406Z,15.30
2018-06-16T00:19:48.409Z,12.40
2018-06-16T00:20:48.413Z,13.60
2018-06-16T00:21:48.416Z,16.40
2018-06-16T00:22:48.418Z,14.40
2018-06-16T00:23:48.420Z,16.50
2018-06-16T00:24:48.426Z,18.00
2018-06-16T00:25:48.432Z,9.40
2018-06-16T00:26:48.430Z,12.70
2018-06-16T00:27:48.433Z,11.70
2018-06-16T00:28:48.436Z,10.50
2018-06-16T00:29:48.438Z,15.30
2018-06-16T00:30:48.440Z,16.10
2018-06-16T00:31:48.445Z,7.90
2018-06-16T00:32:48.447Z,14.60
2018-06-16T00:33:48.449Z,12.80
2018-06-16T00:34:48.453Z,14.70
2018-06-16T00:35:48.457Z,12.60
2018-06-16T00:36:48.460Z,11.90
2018-06-16T00:37:48.462Z,15.00
2018-06-16T00:38:48.465Z,11.60
2018-06-16T00:39:48.468Z,10.30
2018-06-16T00:40:48.473Z,10.40
2018-06-16T00:41:48.473Z,10.30
2018-06-16T00:42:48.477Z,10.30
2018-06-16T00:43:48.482Z,10.10
2018-06-16T00:44:48.483Z,11.60
2018-06-16T00:45:48.485Z,15.20
2018-06-16T00:46:48.488Z,13.20
2018-06-16T00:47:48.492Z,9.80
2018-06-16T00:48:48.500Z,8.50
2018-06-16T00:49:48.498Z,9.80
2018-06-16T00:50:48.501Z,13.40
2018-06-16T00:51:48.504Z,11.60
2018-06-16T00:52:48.546Z,13.50
2018-06-16T00:53:48.510Z,8.70
2018-06-16T00:54:48.513Z,9.40
2018-06-16T00:55:48.516Z,8.80
2018-06-16T00:56:48.520Z,14.00
2018-06-16T00:57:48.525Z,8.30
2018-06-16T00:58:48.525Z,9.10
2018-06-16T00:59:48.528Z,10.50
2018-06-16T01:00:48.533Z,14.70
2018-06-16T01:01:48.534Z,9.80
2018-06-16T01:02:48.537Z,8.30
2018-06-16T01:03:48.541Z,8.90
2018-06-16T01:04:48.543Z,8.10
2018-06-16T01:05:48.546Z,8.90
2018-06-16T01:06:48.549Z,8.90
2018-06-16T01:07:48.552Z,9.80
2018-06-16T01:08:48.556Z,9.20
2018-06-16T01:09:48.557Z,9.40
2018-06-16T01:10:48.561Z,9.00
2018-06-16T01:11:48.565Z,10.20
2018-06-16T01:12:48.568Z,7.30
2018-06-16T01:13:48.571Z,6.20
2018-06-16T01:14:48.573Z,7.90
2018-06-16T01:15:48.581Z,6.40
2018-06-16T01:16:48.581Z,11.10
2018-06-16T01:17:48.583Z,7.10
2018-06-16T01:18:48.586Z,7.20
2018-06-16T01:19:48.589Z,9.50
2018-06-16T01:20:48.594Z,6.60
2018-06-16T01:21:48.595Z,6.80
2018-06-16T01:22:48.597Z,6.90
2018-06-16T01:23:48.601Z,10.30
2018-06-16T01:24:48.605Z,14.00
2018-06-16T01:25:48.608Z,8.90
2018-06-16T01:26:48.609Z,9.40
2018-06-16T01:27:48.613Z,8.20
2018-06-16T01:28:48.616Z,6.10
2018-06-16T01:29:48.618Z,7.10
2018-06-16T01:30:48.622Z,9.90
2018-06-16T01:31:48.625Z,8.00
2018-06-16T01:32:48.628Z,8.60
2018-06-16T01:33:48.632Z,5.60
2018-06-16T01:34:48.633Z,8.00
2018-06-16T01:35:48.635Z,8.30
2018-06-16T01:36:48.640Z,8.70
2018-06-16T01:37:48.641Z,7.70
2018-06-16T01:38:48.647Z,7.50
2018-06-16T01:39:48.648Z,8.70
2018-06-16T01:40:48.651Z,5.40
2018-06-16T01:41:48.654Z,6.00
2018-06-16T01:42:48.656Z,7.00
2018-06-16T01:43:48.660Z,8.00
2018-06-16T01:44:48.663Z,7.70
2018-06-16T01:45:48.670Z,8.40
2018-06-16T01:46:48.668Z,6.30
2018-06-16T01:47:48.671Z,14.40
2018-06-16T01:48:48.675Z,8.20
2018-06-16T01:49:48.677Z,6.60
2018-06-16T01:50:48.680Z,7.20
2018-06-16T01:51:48.683Z,7.10
2018-06-16T01:52:48.687Z,5.10
2018-06-16T01:53:48.690Z,9.50
2018-06-16T01:54:48.691Z,5.20
2018-06-16T01:55:48.694Z,7.00
2018-06-16T01:56:48.698Z,8.70
2018-06-16T01:57:48.699Z,7.20
2018-06-16T01:58:48.702Z,5.40
2018-06-16T01:59:48.706Z,6.10
2018-06-16T02:00:48.709Z,6.40
2018-06-16T02:01:48.711Z,7.10
2018-06-16T02:02:48.719Z,11.60
2018-06-16T02:03:48.717Z,5.80
2018-06-16T02:04:48.722Z,5.10
2018-06-16T02:05:48.721Z,5.90
2018-06-16T02:06:48.725Z,9.80
2018-06-16T02:07:48.727Z,4.90
2018-06-16T02:08:48.731Z,5.80
2018-06-16T02:09:48.732Z,6.40
2018-06-16T02:10:48.735Z,6.20
2018-06-16T02:11:48.738Z,4.40
2018-06-16T02:12:48.741Z,5.10
2018-06-16T02:13:48.745Z,4.30
2018-06-16T02:14:48.748Z,6.80
2018-06-16T02:15:48.749Z,7.10
2018-06-16T02:16:48.752Z,7.70
2018-06-16T02:17:48.753Z,4.80
2018-06-16T02:18:48.759Z,7.50
2018-06-16T02:19:48.759Z,10.90
2018-06-16T02:20:48.768Z,5.60
2018-06-16T02:21:48.763Z,4.70
2018-06-16T02:22:48.771Z,4.80
2018-06-16T02:23:48.769Z,6.20
2018-06-16T02:24:48.772Z,7.90
2018-06-16T02:25:48.775Z,7.20
2018-06-16T02:26:48.776Z,7.90
2018-06-16T02:27:48.781Z,9.90
2018-06-16T02:28:48.788Z,15.80
2018-06-16T02:29:48.783Z,7.90
2018-06-16T02:30:48.794Z,7.10
2018-06-16T02:31:48.789Z,5.10
2018-06-16T02:32:48.791Z,8.90
2018-06-16T02:33:48.797Z,5.70
2018-06-16T02:34:48.796Z,6.60
2018-06-16T02:35:48.799Z,6.60
2018-06-16T02:36:48.801Z,5.10
2018-06-16T02:37:48.802Z,5.00
2018-06-16T02:38:48.804Z,5.10
2018-06-16T02:39:48.807Z,5.30
2018-06-16T02:40:48.809Z,6.90
2018-06-16T02:41:48.811Z,6.80
2018-06-16T02:42:48.813Z,5.10
2018-06-16T02:43:48.816Z,9.70
2018-06-16T02:44:48.820Z,7.40
2018-06-16T02:45:48.820Z,5.00
2018-06-16T02:46:48.822Z,6.00
2018-06-16T02:47:48.825Z,11.80
2018-06-16T02:48:48.836Z,7.90
2018-06-16T02:49:48.829Z,8.10
2018-06-16T02:50:48.830Z,5.40
2018-06-16T02:51:48.834Z,8.60
2018-06-16T02:52:48.836Z,6.10
2018-06-16T02:53:48.841Z,3.80
2018-06-16T02:54:48.840Z,5.20
2018-06-16T02:55:48.843Z,6.80
2018-06-16T02:56:48.844Z,7.30
2018-06-16T02:57:48.848Z,9.30
2018-06-16T02:58:48.848Z,6.70
2018-06-16T02:59:48.851Z,8.50
2018-06-16T03:00:48.852Z,7.30
2018-06-16T03:01:48.854Z,6.00
2018-06-16T03:02:48.856Z,5.10
2018-06-16T03:03:48.858Z,5.60
2018-06-16T03:04:48.862Z,11.80
2018-06-16T03:05:48.862Z,10.00
2018-06-16T03:06:48.865Z,5.90
2018-06-16T03:07:48.866Z,8.70
2018-06-16T03:08:48.869Z,9.30
2018-06-16T03:09:48.870Z,8.00
2018-06-16T03:10:48.873Z,4.30
2018-06-16T03:11:48.874Z,6.90
2018-06-16T03:12:48.877Z,6.30
2018-06-16T03:13:48.879Z,4.80
2018-06-16T03:14:48.880Z,5.20
2018-06-16T03:15:48.882Z,4.30
2018-06-16T03:16:48.885Z,8.20
2018-06-16T03:17:48.885Z,6.60
2018-06-16T03:18:48.888Z,4.20
2018-06-16T03:19:48.890Z,8.90
2018-06-16T03:20:48.892Z,5.80
2018-06-16T03:21:48.893Z,7.40
2018-06-16T03:22:48.895Z,8.90
2018-06-16T03:23:48.898Z,5.90
2018-06-16T03:24:48.899Z,4.60
2018-06-16T03:25:48.937Z,3.90
2018-06-16T03:26:48.903Z,6.70
2018-06-16T03:27:48.905Z,7.30
2018-06-16T03:28:48.906Z,5.80
2018-06-16T03:29:48.908Z,8.90
2018-06-16T03:30:48.911Z,6.60
2018-06-16T03:31:48.913Z,5.20
2018-06-16T03:32:48.914Z,4.30
2018-06-16T03:33:48.915Z,7.20
2018-06-16T03:34:48.918Z,6.90
2018-06-16T03:35:48.919Z,6.30
2018-06-16T03:36:48.922Z,3.90
2018-06-16T03:37:48.923Z,11.50
2018-06-16T03:38:48.925Z,6.50
2018-06-16T03:39:48.927Z,6.50
2018-06-16T03:40:48.931Z,6.20
2018-06-16T03:41:48.930Z,10.10
2018-06-16T03:42:48.932Z,6.60
2018-06-16T03:43:48.934Z,5.00
2018-06-16T03:44:48.936Z,5.50
2018-06-16T03:45:48.938Z,7.00
2018-06-16T03:46:48.939Z,7.70
2018-06-16T03:47:48.941Z,4.40
2018-06-16T03:48:48.944Z,11.90
2018-06-16T03:49:48.945Z,4.80
2018-06-16T03:50:48.947Z,5.30
2018-06-16T03:51:48.952Z,5.90
2018-06-16T03:52:48.951Z,8.50
2018-06-16T03:53:48.952Z,6.80
2018-06-16T03:54:48.954Z,5.60
2018-06-16T03:55:48.960Z,6.90
2018-06-16T03:56:48.960Z,7.30
2018-06-16T03:57:48.959Z,5.10
2018-06-16T03:58:48.961Z,5.40
2018-06-16T03:59:48.964Z,6.30
2018-06-16T04:00:48.967Z,7.60
2018-06-16T04:01:48.970Z,6.10
2018-06-16T04:02:48.971Z,10.40
2018-06-16T04:03:48.971Z,9.80
2018-06-16T04:04:48.974Z,4.30
2018-06-16T04:05:48.975Z,13.60
2018-06-16T04:06:48.980Z,7.50
2018-06-16T04:07:48.978Z,4.30
2018-06-16T04:08:48.982Z,4.50
2018-06-16T04:09:48.982Z,13.30
2018-06-16T04:10:48.985Z,11.70
2018-06-16T04:11:48.986Z,10.80
2018-06-16T04:12:48.989Z,5.50
2018-06-16T04:13:48.990Z,6.40
2018-06-16T04:14:48.992Z,10.00
2018-06-16T04:15:48.994Z,8.80
2018-06-16T04:16:48.997Z,10.00
2018-06-16T04:17:48.998Z,4.10
2018-06-16T04:18:49.001Z,6.90
2018-06-16T04:19:49.003Z,4.30
2018-06-16T04:20:49.005Z,6.50
2018-06-16T04:21:49.006Z,13.90
2018-06-16T04:22:49.009Z,10.10
2018-06-16T04:23:49.011Z,5.60
2018-06-16T04:24:49.013Z,8.30
2018-06-16T04:25:49.013Z,5.80
2018-06-16T04:26:49.017Z,5.50
2018-06-16T04:27:49.022Z,8.80
2018-06-16T04:28:49.021Z,5.60
2018-06-16T04:29:49.022Z,4.10
2018-06-16T04:30:49.025Z,5.90
2018-06-16T04:31:49.039Z,4.40
2018-06-16T04:32:49.029Z,4.20
2018-06-16T04:33:49.040Z,8.00
2018-06-16T04:34:49.073Z,6.90
2018-06-16T04:35:49.037Z,6.70
2018-06-16T04:36:49.047Z,9.20
2018-06-16T04:37:49.040Z,4.50
2018-06-16T04:38:49.041Z,5.50
2018-06-16T04:39:49.044Z,8.10
2018-06-16T04:40:49.047Z,4.80
2018-06-16T04:41:49.047Z,8.80
2018-06-16T04:42:49.050Z,9.90
2018-06-16T04:43:49.056Z,8.60
2018-06-16T04:44:49.054Z,6.00
2018-06-16T04:45:49.137Z,4.70
2018-06-16T04:46:49.060Z,5.40
2018-06-16T04:47:49.063Z,6.30
2018-06-16T04:48:49.064Z,10.80
2018-06-16T04:49:49.067Z,5.90
2018-06-16T04:50:49.069Z,5.80
2018-06-16T04:51:49.072Z,4.80
2018-06-16T04:52:49.075Z,5.00
2018-06-16T04:53:49.077Z,4.80
2018-06-16T04:54:49.080Z,13.10
2018-06-16T04:55:49.083Z,4.40
2018-06-16T04:56:49.086Z,6.20
2018-06-16T04:57:49.086Z,8.30
2018-06-16T04:58:49.090Z,5.00
2018-06-16T04:59:49.093Z,4.50
2018-06-16T05:00:49.096Z,7.30
2018-06-16T05:01:49.098Z,7.10
2018-06-16T05:02:49.102Z,8.60
2018-06-16T05:03:49.104Z,5.50
2018-06-16T05:04:49.107Z,5.90
2018-06-16T05:05:49.110Z,6.40
2018-06-16T05:06:49.111Z,6.60
2018-06-16T05:07:49.119Z,6.00
2018-06-16T05:08:49.119Z,9.50
2018-06-16T05:09:49.122Z,7.30
2018-06-16T05:10:49.125Z,4.40
2018-06-16T05:11:49.128Z,8.70
2018-06-16T05:12:49.133Z,8.70
2018-06-16T05:13:49.134Z,5.30
2018-06-16T05:14:49.138Z,9.50
2018-06-16T05:15:49.141Z,15.20
2018-06-16T05:16:49.145Z,10.20
2018-06-16T05:17:49.148Z,8.10
2018-06-16T05:18:49.150Z,8.20
2018-06-16T05:19:49.155Z,5.90
2018-06-16T05:20:49.159Z,7.70
2018-06-16T05:21:49.223Z,9.20
2018-06-16T05:22:49.166Z,9.90
2018-06-16T05:23:49.169Z,9.30
2018-06-16T05:24:49.175Z,9.40
2018-06-16T05:25:49.241Z,7.50
2018-06-16T05:26:49.181Z,8.80
2018-06-16T05:27:49.185Z,10.30
2018-06-16T05:28:49.195Z,8.50
2018-06-16T05:29:49.192Z,7.00
2018-06-16T05:30:49.197Z,7.10
2018-06-16T05:31:49.203Z,5.70
2018-06-16T05:32:49.205Z,6.80
2018-06-16T05:33:49.210Z,8.10
2018-06-16T05:34:49.214Z,10.10
2018-06-16T05:35:49.219Z,8.50
2018-06-16T05:36:49.223Z,12.40
2018-06-16T05:37:49.226Z,7.90
2018-06-16T05:38:49.231Z,9.70
2018-06-16T05:39:49.236Z,6.20
2018-06-16T05:40:49.241Z,10.20
2018-06-16T05:41:49.244Z,8.70
2018-06-16T05:42:49.247Z,9.30
2018-06-16T05:43:49.256Z,8.30
2018-06-16T05:44:49.258Z,9.40
2018-06-16T05:45:49.262Z,12.60
2018-06-16T05:46:49.268Z,6.10
2018-06-16T05:47:49.274Z,10.90
2018-06-16T05:48:49.278Z,13.00
2018-06-16T05:49:49.281Z,11.30
2018-06-16T05:50:49.288Z,7.30
2018-06-16T05:51:49.292Z,6.30
2018-06-16T05:52:49.297Z,12.80
2018-06-16T05:53:49.300Z,9.30
2018-06-16T05:54:49.305Z,7.10
2018-06-16T05:55:49.310Z,6.90
2018-06-16T05:56:49.315Z,7.30
2018-06-16T05:57:49.321Z,8.50
2018-06-16T05:58:49.324Z,8.10
2018-06-16T05:59:49.330Z,8.40
2018-06-16T06:00:49.335Z,6.50
2018-06-16T06:01:49.339Z,8.10
2018-06-16T06:02:49.345Z,8.40
2018-06-16T06:03:49.349Z,6.40
2018-06-16T06:04:49.355Z,7.70
2018-06-16T06:05:49.359Z,5.80
2018-06-16T06:06:49.364Z,9.50
2018-06-16T06:07:49.369Z,12.00
2018-06-16T06:08:49.372Z,11.40
2018-06-16T06:09:49.378Z,13.70
2018-06-16T06:10:49.384Z,8.00
2018-06-16T06:11:49.393Z,9.00
2018-06-16T06:12:49.395Z,9.00
2018-06-16T06:13:49.398Z,6.00
2018-06-16T06:14:49.402Z,5.90
2018-06-16T06:15:49.416Z,6.30
2018-06-16T06:16:49.416Z,8.00
2018-06-16T06:17:49.419Z,5.30
2018-06-16T06:18:49.424Z,8.00
2018-06-16T06:19:49.430Z,8.20
2018-06-16T06:20:49.435Z,12.90
2018-06-16T06:21:49.441Z,11.10
2018-06-16T06:22:49.446Z,13.40
2018-06-16T06:23:49.451Z,6.20
2018-06-16T06:24:49.456Z,7.70
2018-06-16T06:25:49.464Z,11.10
2018-06-16T06:26:49.466Z,8.90
2018-06-16T06:27:49.471Z,11.00
2018-06-16T06:28:49.478Z,10.40
2018-06-16T06:29:49.484Z,7.90
2018-06-16T06:30:49.487Z,8.70
2018-06-16T06:31:49.494Z,8.90
2018-06-16T06:32:49.500Z,7.20
2018-06-16T06:33:49.503Z,5.60
2018-06-16T06:34:49.508Z,10.90
2018-06-16T06:35:49.515Z,14.20
2018-06-16T06:36:49.522Z,9.90
2018-06-16T06:37:49.526Z,12.60
2018-06-16T06:38:49.535Z,13.60
2018-06-16T06:39:49.538Z,9.00
2018-06-16T06:40:49.544Z,6.40
2018-06-16T06:41:49.549Z,10.70
2018-06-16T06:42:49.555Z,15.20
2018-06-16T06:43:49.561Z,7.90
2018-06-16T06:44:49.568Z,10.50
2018-06-16T06:45:49.571Z,10.20
2018-06-16T06:46:49.578Z,10.70
2018-06-16T06:47:49.584Z,8.60
2018-06-16T06:48:49.589Z,14.10
2018-06-16T06:49:49.594Z,11.20
2018-06-16T06:50:49.604Z,10.60
2018-06-16T06:51:49.607Z,9.50
2018-06-16T06:52:49.612Z,8.60
2018-06-16T06:53:49.617Z,19.00
2018-06-16T06:54:49.623Z,12.80
2018-06-16T06:55:49.630Z,12.20
2018-06-16T06:56:49.637Z,25.50
2018-06-16T06:57:49.669Z,18.00
2018-06-16T06:58:49.647Z,18.40
2018-06-16T06:59:49.655Z,8.50
2018-06-16T07:00:49.660Z,10.60
2018-06-16T07:01:49.665Z,14.50
2018-06-16T07:02:49.672Z,18.00
2018-06-16T07:03:49.678Z,10.60
2018-06-16T07:04:49.686Z,8.40
2018-06-16T07:05:49.691Z,8.40
2018-06-16T07:06:49.697Z,10.40
2018-06-16T07:07:49.703Z,15.00
2018-06-16T07:08:49.710Z,15.90
2018-06-16T07:09:49.716Z,20.40
2018-06-16T07:10:49.765Z,9.40
2018-06-16T07:11:49.731Z,12.30
2018-06-16T07:12:49.736Z,15.00
2018-06-16T07:13:49.742Z,10.50
2018-06-16T07:14:49.747Z,13.10
2018-06-16T07:15:49.757Z,10.20
2018-06-16T07:16:49.765Z,13.40
2018-06-16T07:17:49.769Z,10.80
2018-06-16T07:18:49.778Z,6.80
2018-06-16T07:19:49.784Z,11.60
2018-06-16T07:20:49.790Z,6.80
2018-06-16T07:21:49.798Z,13.80
2018-06-16T07:22:49.805Z,11.40
2018-06-16T07:23:49.810Z,19.20
2018-06-16T07:24:49.819Z,12.70
2018-06-16T07:25:49.825Z,9.70
2018-06-16T07:26:49.833Z,14.00
2018-06-16T07:27:49.839Z,16.30
2018-06-16T07:28:49.846Z,13.30
2018-06-16T07:29:49.853Z,10.60
2018-06-16T07:30:49.860Z,9.40
2018-06-16T07:31:49.868Z,13.40
2018-06-16T07:32:49.876Z,21.30
2018-06-16T07:33:49.882Z,19.20
2018-06-16T07:34:49.890Z,13.30
2018-06-16T07:35:49.897Z,8.70
2018-06-16T07:36:49.905Z,14.40
2018-06-16T07:37:49.913Z,22.50
2018-06-16T07:38:49.926Z,15.70
2018-06-16T07:39:49.928Z,9.10
2018-06-16T07:40:49.936Z,16.30
2018-06-16T07:41:49.942Z,16.60
2018-06-16T07:42:49.951Z,18.50
2018-06-16T07:43:49.959Z,15.30
2018-06-16T07:44:49.969Z,12.40
2018-06-16T07:45:49.976Z,16.00
2018-06-16T07:46:49.984Z,11.50
2018-06-16T07:47:49.993Z,13.50
2018-06-16T07:48:50.028Z,10.70
2018-06-16T07:49:50.009Z,14.90
2018-06-16T07:50:50.018Z,12.80
2018-06-16T07:51:50.027Z,12.80
2018-06-16T07:52:50.036Z,11.80
2018-06-16T07:53:50.044Z,9.90
2018-06-16T07:54:50.053Z,14.60
2018-06-16T07:55:50.061Z,15.80
2018-06-16T07:56:50.122Z,17.80
2018-06-16T07:57:50.080Z,20.10
2018-06-16T07:58:50.086Z,22.60
2018-06-16T07:59:50.095Z,14.20
2018-06-16T08:00:50.104Z,17.90
2018-06-16T08:01:50.112Z,18.80
2018-06-16T08:02:50.144Z,13.10
2018-06-16T08:03:50.129Z,25.20
2018-06-16T08:04:50.139Z,13.80
2018-06-16T08:05:50.145Z,15.70
2018-06-16T08:06:50.156Z,15.90
2018-06-16T08:07:50.164Z,16.80
2018-06-16T08:08:50.175Z,17.90
2018-06-16T08:09:50.180Z,11.80
2018-06-16T08:10:50.190Z,19.10
2018-06-16T08:11:50.199Z,12.50
2018-06-16T08:12:50.262Z,11.30
2018-06-16T08:13:50.216Z,14.50
2018-06-16T08:14:50.225Z,20.40
2018-06-16T08:15:50.235Z,12.50
2018-06-16T08:16:50.244Z,16.90
2018-06-16T08:17:50.250Z,18.70
2018-06-16T08:18:50.259Z,18.40
2018-06-16T08:19:50.268Z,14.00
2018-06-16T08:20:50.277Z,16.80
2018-06-16T08:21:50.285Z,15.00
2018-06-16T08:22:50.300Z,18.90
2018-06-16T08:23:50.304Z,12.80
2018-06-16T08:24:50.312Z,11.50
2018-06-16T08:25:50.322Z,13.50
2018-06-16T08:26:50.330Z,15.50
2018-06-16T08:27:50.339Z,18.20
2018-06-16T08:28:50.351Z,19.30
2018-06-16T08:29:50.355Z,15.40
2018-06-16T08:30:50.364Z,19.70
2018-06-16T08:31:50.374Z,13.30
2018-06-16T08:32:50.382Z,15.20
2018-06-16T08:33:50.395Z,19.80
2018-06-16T08:34:50.434Z,17.60
2018-06-16T08:35:50.411Z,19.40
2018-06-16T08:36:50.421Z,17.20
2018-06-16T08:37:50.430Z,13.90
2018-06-16T08:38:50.440Z,14.20
2018-06-16T08:39:50.450Z,18.90
2018-06-16T08:40:50.461Z,12.60
2018-06-16T08:41:50.469Z,16.20
2018-06-16T08:42:50.481Z,13.00
2018-06-16T08:43:50.491Z,15.20
2018-06-16T08:44:50.500Z,17.60
2018-06-16T08:45:50.511Z,18.20
2018-06-16T08:46:50.521Z,11.90
2018-06-16T08:47:50.532Z,15.10
2018-06-16T08:48:50.543Z,20.60
2018-06-16T08:49:50.553Z,13.50
2018-06-16T08:50:50.565Z,11.90
2018-06-16T08:51:50.574Z,17.70
2018-06-16T08:52:50.585Z,14.70
2018-06-16T08:53:50.595Z,18.70
2018-06-16T08:54:50.605Z,16.80
2018-06-16T08:55:50.618Z,13.80
2018-06-16T08:56:50.628Z,17.50
2018-06-16T08:57:50.637Z,11.20
2018-06-16T08:58:50.648Z,18.80
2018-06-16T08:59:50.659Z,15.20
2018-06-16T09:00:50.673Z,15.00
2018-06-16T09:01:50.680Z,9.80
2018-06-16T09:02:50.692Z,10.70
2018-06-16T09:03:50.703Z,12.20
2018-06-16T09:04:50.715Z,14.40
2018-06-16T09:05:50.725Z,21.40
2018-06-16T09:06:50.742Z,17.70
2018-06-16T09:07:50.749Z,22.20
2018-06-16T09:08:50.762Z,15.40
2018-06-16T09:09:50.771Z,17.50
2018-06-16T09:10:50.789Z,18.40
2018-06-16T09:11:50.794Z,13.10
2018-06-16T09:12:50.805Z,14.50
2018-06-16T09:13:50.817Z,12.40
2018-06-16T09:14:50.828Z,16.20
2018-06-16T09:15:50.839Z,12.00
2018-06-16T09:16:50.850Z,10.00
2018-06-16T09:17:50.864Z,14.50
2018-06-16T09:18:50.874Z,21.80
2018-06-16T09:19:50.884Z,13.30
2018-06-16T09:20:50.896Z,12.50
2018-06-16T09:21:50.905Z,15.90
2018-06-16T09:22:50.920Z,18.40
2018-06-16T09:23:50.930Z,13.10
2018-06-16T09:24:50.942Z,11.50
2018-06-16T09:25:50.953Z,18.10
2018-06-16T09:26:50.965Z,20.00
2018-06-16T09:27:50.982Z,10.50
2018-06-16T09:28:50.988Z,12.80
2018-06-16T09:29:50.999Z,13.90
2018-06-16T09:30:51.011Z,9.90
2018-06-16T09:31:51.028Z,13.40
2018-06-16T09:32:51.033Z,11.20
2018-06-16T09:33:51.043Z,14.70
2018-06-16T09:34:51.054Z,16.20
2018-06-16T09:35:51.067Z,22.40
2018-06-16T09:36:51.083Z,13.00
2018-06-16T09:37:51.096Z,12.30
2018-06-16T09:38:51.107Z,14.90
2018-06-16T09:39:51.115Z,12.40
2018-06-16T09:40:51.128Z,12.50
2018-06-16T09:41:51.138Z,13.90
2018-06-16T09:42:51.150Z,7.70
2018-06-16T09:43:51.166Z,11.40
2018-06-16T09:44:51.178Z,14.10
2018-06-16T09:45:51.185Z,10.10
2018-06-16T09:46:51.198Z,15.90
2018-06-16T09:47:51.210Z,9.90
2018-06-16T09:48:51.225Z,13.20
2018-06-16T09:49:51.233Z,12.40
2018-06-16T09:50:51.247Z,16.00
2018-06-16T09:51:51.259Z,10.80
2018-06-16T09:52:51.272Z,17.60
2018-06-16T09:53:51.282Z,14.60
2018-06-16T09:54:51.295Z,8.40
2018-06-16T09:55:51.308Z,12.30
2018-06-16T09:56:51.320Z,12.00
2018-06-16T09:57:51.331Z,17.80
2018-06-16T09:58:51.345Z,13.00
2018-06-16T09:59:51.356Z,11.40
2018-06-16T10:00:51.368Z,15.20
2018-06-16T10:01:51.384Z,9.40
2018-06-16T10:02:51.393Z,10.10
2018-06-16T10:03:51.404Z,10.40
2018-06-16T10:04:51.416Z,12.90
2018-06-16T10:05:51.429Z,10.00
2018-06-16T10:06:51.441Z,9.80
2018-06-16T10:07:51.454Z,10.50
2018-06-16T10:08:51.466Z,8.20
2018-06-16T10:09:51.477Z,10.40
2018-06-16T10:10:51.490Z,9.10
2018-06-16T10:11:51.502Z,10.50
2018-06-16T10:12:51.515Z,14.40
2018-06-16T10:13:51.526Z,11.60
2018-06-16T10:14:51.539Z,8.40
2018-06-16T10:15:51.590Z,7.00
2018-06-16T10:16:51.564Z,9.40
2018-06-16T10:17:51.574Z,11.70
2018-06-16T10:18:51.588Z,10.60
2018-06-16T10:19:51.599Z,9.80
2018-06-16T10:20:51.611Z,11.90
2018-06-16T10:21:51.623Z,11.40
2018-06-16T10:22:51.635Z,9.00
2018-06-16T10:23:51.648Z,7.60
2018-06-16T10:24:51.659Z,16.00
2018-06-16T10:25:51.671Z,7.80
2018-06-16T10:26:51.684Z,10.40
2018-06-16T10:27:51.697Z,5.50
2018-06-16T10:28:51.709Z,9.70
2018-06-16T10:29:51.720Z,9.10
2018-06-16T10:30:51.732Z,7.70
2018-06-16T10:31:51.744Z,6.60
2018-06-16T10:32:51.756Z,8.20
2018-06-16T10:33:51.767Z,9.30
2018-06-16T10:34:51.779Z,12.50
2018-06-16T10:35:51.793Z,12.70
2018-06-16T10:36:51.805Z,9.20
2018-06-16T10:37:51.814Z,11.90
2018-06-16T10:38:51.827Z,8.20
2018-06-16T10:39:51.839Z,11.30
2018-06-16T10:40:51.851Z,7.00
2018-06-16T10:41:51.864Z,8.40
2018-06-16T10:42:51.873Z,8.30
2018-06-16T10:43:51.885Z,11.10
2018-06-16T10:44:51.897Z,13.10
2018-06-16T10:45:51.906Z,8.60
2018-06-16T10:46:51.919Z,7.10
2018-06-16T10:47:51.932Z,10.10
2018-06-16T10:48:51.943Z,12.00
2018-06-16T10:49:51.953Z,7.00
2018-06-16T10:50:51.965Z,7.30
2018-06-16T10:51:51.977Z,9.30
2018-06-16T10:52:51.989Z,8.20
2018-06-16T10:53:52.000Z,13.90
2018-06-16T10:54:52.011Z,12.50
2018-06-16T10:55:52.023Z,7.50
2018-06-16T10:56:52.033Z,9.60
2018-06-16T10:57:52.045Z,6.30
2018-06-16T10:58:52.058Z,6.80
2018-06-16T10:59:52.066Z,4.90
2018-06-16T11:00:52.078Z,7.60
2018-06-16T11:01:52.091Z,4.90
2018-06-16T11:02:52.100Z,14.50
2018-06-16T11:03:52.111Z,9.20
2018-06-16T11:04:52.123Z,4.00
2018-06-16T11:05:52.137Z,9.00
2018-06-16T11:06:52.146Z,4.10
2018-06-16T11:07:52.156Z,7.70
2018-06-16T11:08:52.168Z,9.60
2018-06-16T11:09:52.177Z,5.90
2018-06-16T11:10:52.190Z,4.20
2018-06-16T11:11:52.200Z,4.40
2018-06-16T11:12:52.211Z,3.70
2018-06-16T11:13:52.222Z,7.10
2018-06-16T11:14:52.232Z,5.50
2018-06-16T11:15:52.244Z,5.70
2018-06-16T11:16:52.256Z,7.20
2018-06-16T11:17:52.265Z,4.20
2018-06-16T11:18:52.275Z,5.10
2018-06-16T11:19:52.288Z,3.70
2018-06-16T11:20:52.298Z,4.30
2018-06-16T11:21:52.308Z,7.80
2018-06-16T11:22:52.319Z,7.30
2018-06-16T11:23:52.330Z,8.00
2018-06-16T11:24:52.342Z,4.70
2018-06-16T11:25:52.395Z,2.40
2018-06-16T11:26:52.362Z,2.80
2018-06-16T11:27:52.372Z,8.80
2018-06-16T11:28:52.383Z,3.40
2018-06-16T11:29:52.391Z,5.70
2018-06-16T11:30:52.403Z,8.40
2018-06-16T11:31:52.417Z,2.80
2018-06-16T11:32:52.425Z,5.70
2018-06-16T11:33:52.434Z,4.60
2018-06-16T11:34:52.445Z,8.00
2018-06-16T11:35:52.457Z,8.40
2018-06-16T11:36:52.468Z,3.30
2018-06-16T11:37:52.477Z,3.30
2018-06-16T11:38:52.488Z,4.70
2018-06-16T11:39:52.500Z,6.10
2018-06-16T11:40:52.537Z,3.40
2018-06-16T11:41:52.518Z,9.40
2018-06-16T11:42:52.529Z,5.80
2018-06-16T11:43:52.539Z,5.70
2018-06-16T11:44:52.551Z,4.30
2018-06-16T11:45:52.560Z,4.30
2018-06-16T11:46:52.570Z,5.30
2018-06-16T11:47:52.582Z,4.00
2018-06-16T11:48:52.597Z,3.70
2018-06-16T11:49:52.601Z,4.20
2018-06-16T11:50:52.613Z,6.40
2018-06-16T11:51:52.623Z,3.20
2018-06-16T11:52:52.633Z,4.20
2018-06-16T11:53:52.643Z,5.30
2018-06-16T11:54:52.652Z,4.00
2018-06-16T11:55:52.662Z,5.30
2018-06-16T11:56:52.673Z,5.90
2018-06-16T11:57:52.683Z,5.00
2018-06-16T11:58:52.692Z,7.00
2018-06-16T11:59:52.702Z,12.40
2018-06-16T12:00:52.711Z,5.90
2018-06-16T12:01:52.781Z,4.90
2018-06-16T12:02:52.735Z,3.10
2018-06-16T12:03:52.743Z,6.40
2018-06-16T12:04:52.751Z,2.70
2018-06-16T12:05:52.760Z,6.40
2018-06-16T12:06:52.772Z,7.40
2018-06-16T12:07:52.780Z,4.40
2018-06-16T12:08:52.790Z,5.30
2018-06-16T12:09:52.801Z,6.20
2018-06-16T12:10:52.810Z,6.50
2018-06-16T12:11:52.821Z,3.40
2018-06-16T12:12:52.832Z,6.00
2018-06-16T12:13:52.840Z,8.20
2018-06-16T12:14:52.849Z,3.20
2018-06-16T12:15:52.861Z,3.80
2018-06-16T12:16:52.870Z,4.80
2018-06-16T12:17:52.878Z,9.00
2018-06-16T12:18:52.888Z,4.80
2018-06-16T12:19:52.901Z,3.60
2018-06-16T12:20:52.909Z,3.90
2018-06-16T12:21:52.916Z,9.70
2018-06-16T12:22:52.927Z,1.80
2018-06-16T12:23:52.936Z,4.40
2018-06-16T12:24:52.946Z,8.60
2018-06-16T12:25:52.956Z,8.20
2018-06-16T12:26:52.965Z,4.00
2018-06-16T12:27:52.975Z,5.40
2018-06-16T12:28:52.991Z,5.20
2018-06-16T12:29:52.993Z,4.10
2018-06-16T12:30:53.003Z,5.20
2018-06-16T12:31:53.013Z,8.20
2018-06-16T12:32:53.023Z,2.10
2018-06-16T12:33:53.031Z,6.40
2018-06-16T12:34:53.042Z,2.80
2018-06-16T12:35:53.059Z,7.00
2018-06-16T12:36:53.062Z,7.90
2018-06-16T12:37:53.070Z,3.40
2018-06-16T12:38:53.082Z,4.60
2018-06-16T12:39:53.091Z,5.10
2018-06-16T12:40:53.100Z,3.70
2018-06-16T12:41:53.108Z,3.00
2018-06-16T12:42:53.118Z,5.90
2018-06-16T12:43:53.127Z,4.00
2018-06-16T12:44:53.137Z,6.60
2018-06-16T12:45:53.145Z,4.40
2018-06-16T12:46:53.155Z,4.50
2018-06-16T12:47:53.164Z,3.80
2018-06-16T12:48:53.176Z,7.10
2018-06-16T12:49:53.183Z,6.30
2018-06-16T12:50:53.195Z,4.10
2018-06-16T12:51:53.202Z,5.20
2018-06-16T12:52:53.211Z,5.50
2018-06-16T12:53:53.220Z,2.80
2018-06-16T12:54:53.230Z,2.90
2018-06-16T12:55:53.239Z,6.80
2018-06-16T12:56:53.275Z,2.00
2018-06-16T12:57:53.325Z,2.90
2018-06-16T12:58:53.267Z,3.10
2018-06-16T12:59:53.276Z,4.80
2018-06-16T13:00:53.285Z,9.10
2018-06-16T13:01:53.294Z,2.60
2018-06-16T13:02:53.303Z,3.80
2018-06-16T13:03:53.312Z,3.50
2018-06-16T13:04:53.322Z,4.80
2018-06-16T13:05:53.331Z,6.50
2018-06-16T13:06:53.340Z,3.10
2018-06-16T13:07:53.352Z,6.10
2018-06-16T13:08:53.360Z,4.70